createdAt,value
2023-04-20T00:01:13.660Z,26.27
2023-04-20T00:03:43.318Z,24.58
2023-04-20T00:06:14.211Z,23.27
2023-04-20T00:08:46.750Z,20.83
2023-04-20T00:11:16.304Z,21.00
2023-04-20T00:13:46.118Z,26.10
2023-04-20T00:16:15.664Z,20.20
2023-04-20T00:18:45.241Z,24.95
2023-04-20T00:21:15.220Z,22.23
2023-04-20T00:23:47.318Z,23.38
2023-04-20T00:26:17.168Z,23.58
2023-04-20T00:28:47.385Z,26.70
2023-04-20T00:31:16.997Z,22.58
2023-04-20T00:33:46.600Z,25.25
2023-04-20T00:36:16.150Z,23.05
2023-04-20T00:38:48.261Z,29.33
2023-04-20T00:41:17.816Z,27.65
2023-04-20T00:43:54.438Z,30.23
2023-04-20T00:46:25.010Z,29.25
2023-04-20T00:48:56.429Z,28.17
2023-04-20T00:51:26.706Z,30.40
2023-04-20T00:53:59.435Z,30.13
2023-04-20T00:56:29.005Z,32.22
2023-04-20T00:58:58.952Z,30.45
2023-04-20T01:01:29.285Z,28.52
2023-04-20T01:03:59.107Z,25.95
2023-04-20T01:06:28.792Z,34.45
2023-04-20T01:09:00.949Z,34.30
2023-04-20T01:11:30.551Z,30.73
2023-04-20T01:14:00.155Z,31.67
2023-04-20T01:16:30.030Z,29.73
2023-04-20T01:18:59.777Z,32.72
2023-04-20T01:21:29.533Z,25.85
2023-04-20T01:24:01.735Z,24.55
2023-04-20T01:26:31.322Z,26.40
2023-04-20T01:29:00.899Z,24.30
2023-04-20T01:31:30.470Z,32.50
2023-04-20T01:34:00.090Z,32.95
2023-04-20T01:36:29.896Z,44.40
2023-04-20T01:39:02.339Z,35.33
2023-04-20T01:41:31.929Z,38.03
2023-04-20T01:44:01.524Z,36.47
2023-04-20T01:46:31.140Z,34.70
2023-04-20T01:49:00.904Z,32.35
2023-04-20T01:51:30.643Z,28.88
2023-04-20T01:54:02.949Z,31.83
2023-04-20T01:56:32.460Z,27.70
2023-04-20T01:59:01.996Z,25.60
2023-04-20T02:01:31.559Z,26.42
2023-04-20T02:04:01.171Z,28.73
2023-04-20T02:06:31.434Z,27.23
2023-04-20T02:09:03.739Z,27.25
2023-04-20T02:11:33.275Z,24.52
2023-04-20T02:14:03.767Z,26.77
2023-04-20T02:16:33.395Z,27.20
2023-04-20T02:19:03.113Z,26.27
2023-04-20T02:21:32.654Z,25.67
2023-04-20T02:24:04.871Z,31.45
2023-04-20T02:26:34.421Z,28.52
2023-04-20T02:29:03.949Z,29.95
2023-04-20T02:31:33.901Z,23.35
2023-04-20T02:34:06.259Z,26.73
2023-04-20T02:36:35.856Z,25.38
2023-04-20T02:39:07.949Z,28.45
2023-04-20T02:41:37.494Z,26.70
2023-04-20T02:44:07.182Z,29.52
2023-04-20T02:46:36.728Z,23.25
2023-04-20T02:49:06.434Z,28.30
2023-04-20T02:51:35.956Z,28.52
2023-04-20T02:54:08.503Z,27.17
2023-04-20T02:56:38.041Z,21.30
2023-04-20T02:59:07.645Z,24.67
2023-04-20T03:01:37.569Z,28.13
2023-04-20T03:04:07.810Z,26.85
2023-04-20T03:06:38.778Z,21.27
2023-04-20T03:09:11.150Z,24.15
2023-04-20T03:11:40.676Z,22.83
2023-04-20T03:14:10.280Z,24.25
2023-04-20T03:16:39.934Z,22.92
2023-04-20T03:19:09.575Z,22.88
2023-04-20T03:21:39.116Z,26.50
2023-04-20T03:24:11.518Z,24.52
2023-04-20T03:26:41.420Z,27.08
2023-04-20T03:29:11.007Z,24.85
2023-04-20T03:31:40.568Z,25.88
2023-04-20T03:34:10.157Z,27.13
2023-04-20T03:36:40.861Z,25.80
2023-04-20T03:39:13.306Z,25.83
2023-04-20T03:41:43.079Z,24.17
2023-04-20T03:44:12.630Z,26.67
2023-04-20T03:46:42.531Z,27.95
2023-04-20T03:49:12.063Z,25.90
2023-04-20T03:51:41.588Z,29.25
2023-04-20T03:54:13.693Z,25.20
2023-04-20T03:56:44.765Z,26.15
2023-04-20T03:59:14.474Z,25.83
2023-04-20T04:01:44.503Z,23.75
2023-04-20T04:04:14.778Z,24.70
2023-04-20T04:06:45.000Z,22.58
2023-04-20T04:09:17.863Z,23.38
2023-04-20T04:11:48.887Z,25.65
2023-04-20T04:14:18.653Z,27.02
2023-04-20T04:16:48.675Z,26.17
2023-04-20T04:19:19.007Z,27.25
2023-04-20T04:21:49.201Z,24.13
2023-04-20T04:24:21.882Z,26.70
2023-04-20T04:26:52.051Z,23.30
2023-04-20T04:29:22.429Z,26.67
2023-04-20T04:31:52.543Z,24.63
2023-04-20T04:34:24.298Z,29.10
2023-04-20T04:36:54.365Z,26.40
2023-04-20T04:39:26.926Z,28.98
2023-04-20T04:41:57.992Z,26.73
2023-04-20T04:44:29.221Z,25.52
2023-04-20T04:46:58.994Z,28.70
2023-04-20T04:49:30.191Z,27.20
2023-04-20T04:52:00.122Z,25.63
2023-04-20T04:54:32.466Z,26.70
2023-04-20T04:57:02.448Z,29.63
2023-04-20T04:59:32.140Z,27.50
2023-04-20T05:02:02.200Z,27.50
2023-04-20T05:04:31.980Z,28.63
2023-04-20T05:07:01.783Z,26.63
2023-04-20T05:09:34.081Z,28.00
2023-04-20T05:12:04.155Z,30.15
2023-04-20T05:14:34.138Z,27.88
2023-04-20T05:17:04.275Z,27.65
2023-04-20T05:19:33.794Z,27.67
2023-04-20T05:22:03.326Z,25.17
2023-04-20T05:24:35.834Z,27.13
2023-04-20T05:27:05.747Z,30.50
2023-04-20T05:29:35.339Z,31.85
2023-04-20T05:32:05.046Z,33.42
2023-04-20T05:34:34.681Z,31.15
2023-04-20T05:37:06.822Z,33.85
2023-04-20T05:39:38.916Z,30.60
2023-04-20T05:42:08.620Z,30.23
2023-04-20T05:44:39.602Z,36.03
2023-04-20T05:47:09.113Z,33.50
2023-04-20T05:49:38.811Z,30.67
2023-04-20T05:52:08.376Z,30.52
2023-04-20T05:54:40.581Z,34.55
2023-04-20T05:57:10.101Z,34.47
2023-04-20T05:59:39.633Z,33.30
2023-04-20T06:02:09.501Z,36.95
2023-04-20T06:04:39.767Z,36.45
2023-04-20T06:07:09.752Z,34.17
2023-04-20T06:09:42.070Z,40.72
2023-04-20T06:12:11.731Z,35.20
2023-04-20T06:14:41.270Z,36.95
2023-04-20T06:17:10.800Z,37.65
2023-04-20T06:19:40.980Z,36.17
2023-04-20T06:22:11.198Z,34.83
2023-04-20T06:24:43.832Z,37.03
2023-04-20T06:27:14.013Z,38.65
2023-04-20T06:29:43.566Z,42.25
2023-04-20T06:32:13.152Z,43.10
2023-04-20T06:34:42.706Z,42.83
2023-04-20T06:37:12.349Z,40.72
2023-04-20T06:39:44.469Z,41.08
2023-04-20T06:42:14.045Z,37.03
2023-04-20T06:44:43.579Z,37.28
2023-04-20T06:47:13.110Z,35.22
2023-04-20T06:49:43.613Z,33.20
2023-04-20T06:52:13.214Z,34.33
2023-04-20T06:54:45.449Z,34.70
2023-04-20T06:57:14.953Z,37.72
2023-04-20T06:59:44.529Z,31.13
2023-04-20T07:02:14.260Z,38.38
2023-04-20T07:04:43.953Z,33.40
2023-04-20T07:07:13.683Z,37.00
2023-04-20T07:09:45.844Z,32.13
2023-04-20T07:12:15.964Z,31.92
2023-04-20T07:14:45.521Z,34.65
2023-04-20T07:17:15.060Z,33.58
2023-04-20T07:19:44.601Z,32.78
2023-04-20T07:22:14.073Z,33.60
2023-04-20T07:24:46.180Z,31.77
2023-04-20T07:27:15.889Z,35.75
2023-04-20T07:29:45.478Z,37.03
2023-04-20T07:32:15.263Z,36.22
2023-04-20T07:34:44.886Z,34.60
2023-04-20T07:37:14.695Z,33.25
2023-04-20T07:39:46.774Z,34.45
2023-04-20T07:42:16.275Z,34.58
2023-04-20T07:44:45.817Z,34.38
2023-04-20T07:47:15.322Z,31.20
2023-04-20T07:49:45.959Z,32.15
2023-04-20T07:52:17.193Z,34.17
2023-04-20T07:54:50.118Z,34.42
2023-04-20T07:57:19.632Z,33.08
2023-04-20T07:59:49.585Z,33.10
2023-04-20T08:02:19.575Z,34.08
2023-04-20T08:04:50.068Z,36.00
2023-04-20T08:07:19.838Z,36.70
2023-04-20T08:09:51.931Z,37.05
2023-04-20T08:12:21.479Z,33.00
2023-04-20T08:14:51.893Z,33.60
2023-04-20T08:17:21.635Z,36.15
2023-04-20T08:19:51.872Z,37.38
2023-04-20T08:22:21.434Z,33.20
2023-04-20T08:24:53.565Z,32.05
2023-04-20T08:27:23.068Z,36.22
2023-04-20T08:29:52.600Z,37.10
2023-04-20T08:32:23.946Z,31.83
2023-04-20T08:34:53.552Z,34.03
2023-04-20T08:37:23.418Z,34.75
2023-04-20T08:39:55.854Z,32.88
2023-04-20T08:42:25.654Z,32.60
2023-04-20T08:44:55.927Z,32.00
2023-04-20T08:47:26.124Z,38.15
2023-04-20T08:49:56.955Z,32.38
2023-04-20T08:52:26.494Z,35.13
2023-04-20T08:54:58.546Z,35.00
2023-04-20T08:57:28.655Z,33.58
2023-04-20T09:00:00.100Z,37.30
2023-04-20T09:02:29.755Z,33.05
2023-04-20T09:05:07.069Z,34.72
2023-04-20T09:07:38.043Z,34.28
2023-04-20T09:10:10.847Z,34.53
2023-04-20T09:12:44.469Z,28.20
2023-04-20T09:15:14.316Z,30.50
2023-04-20T09:17:43.864Z,34.15
2023-04-20T09:20:14.252Z,29.10
2023-04-20T09:22:43.952Z,35.10
2023-04-20T09:25:21.359Z,31.73
2023-04-20T09:27:58.688Z,32.40
2023-04-20T09:30:28.648Z,34.67
2023-04-20T09:33:05.277Z,31.70
2023-04-20T09:35:35.023Z,31.13
2023-04-20T09:38:04.591Z,27.98
2023-04-20T09:40:37.835Z,30.13
2023-04-20T09:43:15.394Z,34.88
2023-04-20T09:45:45.965Z,30.67
2023-04-20T09:48:19.631Z,28.63
2023-04-20T09:50:51.061Z,28.60
2023-04-20T09:53:22.133Z,26.85
2023-04-20T09:55:54.318Z,28.58
2023-04-20T09:58:24.123Z,26.65
2023-04-20T10:00:53.766Z,29.65
2023-04-20T10:03:23.972Z,26.60
2023-04-20T10:05:55.799Z,26.65
2023-04-20T10:08:25.421Z,27.70
2023-04-20T10:10:57.695Z,29.38
2023-04-20T10:13:36.273Z,27.60
2023-04-20T10:16:06.174Z,30.15
2023-04-20T10:18:36.084Z,24.63
2023-04-20T10:21:11.021Z,29.42
2023-04-20T10:23:50.987Z,27.55
2023-04-20T10:26:23.384Z,28.05
2023-04-20T10:28:53.074Z,26.55
2023-04-20T10:31:22.803Z,26.08
2023-04-20T10:33:57.107Z,21.67
2023-04-20T10:36:29.544Z,20.00
2023-04-20T10:39:00.619Z,28.90
2023-04-20T10:41:32.765Z,27.58
2023-04-20T10:44:10.674Z,30.42
2023-04-20T10:46:40.339Z,27.33
2023-04-20T10:49:10.113Z,25.88
2023-04-20T10:51:39.667Z,29.75
2023-04-20T10:54:11.609Z,30.80
2023-04-20T10:56:54.035Z,26.40
2023-04-20T10:59:26.432Z,27.50
2023-04-20T11:01:56.548Z,30.15
2023-04-20T11:04:34.135Z,26.67
2023-04-20T11:07:09.005Z,28.75
2023-04-20T11:09:39.478Z,27.43
2023-04-20T11:12:14.893Z,27.73
2023-04-20T11:14:54.689Z,25.52
2023-04-20T11:17:33.660Z,29.27
2023-04-20T11:20:12.379Z,27.63
2023-04-20T11:22:42.548Z,30.75
2023-04-20T11:25:14.221Z,29.58
2023-04-20T11:27:46.575Z,30.35
2023-04-20T11:30:16.475Z,29.88
2023-04-20T11:32:46.135Z,29.33
2023-04-20T11:35:16.322Z,28.27
2023-04-20T11:37:51.594Z,29.58
2023-04-20T11:40:21.480Z,29.00
2023-04-20T11:42:53.651Z,28.40
2023-04-20T11:45:23.530Z,26.90
2023-04-20T11:47:53.436Z,27.20
2023-04-20T11:50:23.920Z,27.58
2023-04-20T11:52:53.463Z,31.02
2023-04-20T11:55:23.093Z,30.30
2023-04-20T11:57:55.224Z,28.05
2023-04-20T12:00:26.082Z,28.48
2023-04-20T12:02:55.787Z,28.95
2023-04-20T12:05:25.644Z,26.75
2023-04-20T12:07:55.276Z,24.73
2023-04-20T12:10:25.129Z,23.48
2023-04-20T12:12:57.565Z,25.65
2023-04-20T12:15:27.089Z,25.08
2023-04-20T12:17:56.656Z,22.23
2023-04-20T12:20:26.408Z,27.23
2023-04-20T12:22:57.187Z,29.30
2023-04-20T12:25:28.605Z,25.85
2023-04-20T12:28:02.460Z,26.60
2023-04-20T12:30:34.760Z,13.85
2023-04-20T12:33:05.932Z,25.40
2023-04-20T12:35:35.492Z,23.50
2023-04-20T12:38:05.045Z,19.48
2023-04-20T12:40:34.634Z,18.60
2023-04-20T12:43:06.851Z,14.95
2023-04-20T12:45:36.709Z,19.55
2023-04-20T12:48:06.861Z,24.60
2023-04-20T12:50:36.451Z,23.67
2023-04-20T12:53:06.135Z,19.95
2023-04-20T12:55:35.722Z,16.50
2023-04-20T12:58:07.959Z,23.00
2023-04-20T13:00:37.614Z,17.17
2023-04-20T13:03:07.472Z,20.27
2023-04-20T13:05:37.184Z,19.30
2023-04-20T13:08:06.810Z,14.15
2023-04-20T13:10:36.391Z,14.52
2023-04-20T13:13:08.773Z,23.30
2023-04-20T13:15:39.364Z,12.48
2023-04-20T13:18:10.041Z,19.08
2023-04-20T13:20:39.886Z,17.38
2023-04-20T13:23:09.464Z,17.92
2023-04-20T13:25:39.106Z,23.20
2023-04-20T13:28:14.474Z,18.17
2023-04-20T13:30:44.569Z,14.98
2023-04-20T13:33:14.202Z,17.75
2023-04-20T13:35:43.809Z,16.25
2023-04-20T13:38:13.395Z,17.20
2023-04-20T13:40:44.328Z,11.98
2023-04-20T13:43:18.360Z,13.93
2023-04-20T13:45:49.004Z,13.43
2023-04-20T13:48:18.587Z,11.98
2023-04-20T13:50:48.116Z,14.40
2023-04-20T13:53:17.681Z,13.30
2023-04-20T13:55:47.219Z,13.18
2023-04-20T13:58:19.426Z,18.95
2023-04-20T14:00:49.144Z,16.23
2023-04-20T14:03:20.366Z,12.65
2023-04-20T14:05:51.690Z,16.92
2023-04-20T14:08:23.479Z,12.60
2023-04-20T14:10:52.984Z,14.75
2023-04-20T14:13:26.008Z,13.65
2023-04-20T14:15:56.619Z,12.48
2023-04-20T14:18:26.397Z,13.90
2023-04-20T14:20:55.941Z,16.65
2023-04-20T14:23:25.503Z,13.63
2023-04-20T14:25:55.376Z,10.27
2023-04-20T14:28:27.776Z,9.23
2023-04-20T14:30:57.326Z,15.15
2023-04-20T14:33:27.013Z,9.00
2023-04-20T14:35:56.600Z,13.50
2023-04-20T14:38:26.481Z,10.00
2023-04-20T14:40:56.076Z,11.00
2023-04-20T14:43:28.211Z,9.50
2023-04-20T14:45:58.999Z,9.77
2023-04-20T14:48:28.764Z,9.32
2023-04-20T14:50:58.310Z,10.88
2023-04-20T14:53:27.890Z,9.98
2023-04-20T14:55:57.970Z,10.43
2023-04-20T14:58:30.079Z,8.07
2023-04-20T15:00:59.648Z,9.10
2023-04-20T15:03:29.578Z,9.77
2023-04-20T15:06:02.539Z,14.70
2023-04-20T15:08:32.319Z,13.48
2023-04-20T15:11:02.236Z,10.32
2023-04-20T15:13:34.716Z,10.45
2023-04-20T15:16:04.295Z,11.48
2023-04-20T15:18:33.846Z,11.60
2023-04-20T15:21:03.595Z,10.05
2023-04-20T15:23:33.150Z,10.07
2023-04-20T15:26:02.863Z,6.60
2023-04-20T15:28:35.301Z,12.48
2023-04-20T15:31:04.862Z,8.23
2023-04-20T15:33:34.412Z,11.90
2023-04-20T15:36:03.996Z,9.93
2023-04-20T15:38:33.496Z,10.27
2023-04-20T15:41:03.051Z,11.82
2023-04-20T15:43:35.162Z,6.53
2023-04-20T15:46:04.739Z,13.90
2023-04-20T15:48:34.326Z,8.82
2023-04-20T15:51:04.133Z,11.23
2023-04-20T15:53:34.499Z,10.77
2023-04-20T15:56:04.064Z,6.57
2023-04-20T15:58:36.407Z,17.60
2023-04-20T16:01:06.007Z,10.98
2023-04-20T16:03:35.797Z,14.20
2023-04-20T16:06:06.245Z,11.95
2023-04-20T16:08:35.884Z,11.73
2023-04-20T16:11:05.422Z,15.32
2023-04-20T16:13:38.011Z,14.20
2023-04-20T16:16:08.063Z,12.48
2023-04-20T16:18:37.682Z,12.77
2023-04-20T16:21:07.296Z,11.75
2023-04-20T16:23:36.995Z,8.80
2023-04-20T16:26:06.619Z,10.27
2023-04-20T16:28:38.749Z,12.60
2023-04-20T16:31:08.532Z,11.25
2023-04-20T16:33:39.103Z,19.60
2023-04-20T16:36:09.089Z,17.70
2023-04-20T16:38:38.614Z,13.73
2023-04-20T16:41:08.339Z,12.80
2023-04-20T16:43:41.158Z,15.98
2023-04-20T16:46:16.473Z,12.40
2023-04-20T16:48:46.096Z,8.30
2023-04-20T16:51:15.632Z,11.88
2023-04-20T16:53:45.602Z,11.85
2023-04-20T16:56:15.310Z,9.20
2023-04-20T16:58:47.399Z,11.57
2023-04-20T17:01:17.128Z,12.57
2023-04-20T17:03:47.960Z,13.85
2023-04-20T17:06:17.649Z,14.90
2023-04-20T17:08:47.422Z,14.57
2023-04-20T17:11:19.232Z,12.60
2023-04-20T17:13:51.390Z,15.82
2023-04-20T17:16:21.095Z,14.00
2023-04-20T17:18:52.142Z,16.83
2023-04-20T17:21:21.769Z,14.30
2023-04-20T17:23:51.324Z,16.23
2023-04-20T17:26:20.943Z,13.90
2023-04-20T17:28:53.774Z,15.82
2023-04-20T17:31:23.403Z,13.25
2023-04-20T17:33:52.930Z,10.93
2023-04-20T17:36:22.490Z,15.98
2023-04-20T17:38:52.020Z,14.32
2023-04-20T17:41:21.603Z,18.70
2023-04-20T17:43:54.507Z,14.75
2023-04-20T17:46:24.113Z,16.65
2023-04-20T17:48:53.700Z,14.57
2023-04-20T17:51:23.283Z,13.57
2023-04-20T17:53:52.784Z,16.02
2023-04-20T17:56:22.312Z,15.82
2023-04-20T17:58:55.400Z,15.70
2023-04-20T18:01:24.941Z,14.45
2023-04-20T18:03:54.615Z,14.55
2023-04-20T18:06:24.340Z,14.77
2023-04-20T18:08:55.019Z,14.55
2023-04-20T18:11:24.586Z,17.02
2023-04-20T18:13:56.716Z,11.00
2023-04-20T18:16:26.338Z,17.92
2023-04-20T18:18:55.916Z,15.00
2023-04-20T18:21:25.561Z,15.13
2023-04-20T18:23:55.636Z,15.27
2023-04-20T18:26:25.633Z,13.32
2023-04-20T18:28:57.761Z,16.05
2023-04-20T18:31:28.070Z,13.48
2023-04-20T18:33:57.735Z,16.83
2023-04-20T18:36:27.355Z,18.33
2023-04-20T18:38:57.500Z,13.77
2023-04-20T18:41:27.915Z,14.38
2023-04-20T18:44:01.431Z,17.45
2023-04-20T18:46:31.045Z,16.60
2023-04-20T18:49:00.768Z,18.30
2023-04-20T18:51:32.166Z,14.32
2023-04-20T18:54:01.762Z,17.58
2023-04-20T18:56:31.304Z,18.60
2023-04-20T18:59:04.360Z,16.60
2023-04-20T19:01:35.395Z,19.73
2023-04-20T19:04:05.277Z,15.90
2023-04-20T19:06:34.932Z,16.00
2023-04-20T19:09:06.524Z,14.05
2023-04-20T19:11:37.514Z,14.57
2023-04-20T19:14:10.262Z,13.73
2023-04-20T19:16:40.359Z,18.67
2023-04-20T19:19:09.953Z,15.82
2023-04-20T19:21:39.506Z,18.13
2023-04-20T19:24:09.622Z,18.23
2023-04-20T19:26:39.634Z,19.15
2023-04-20T19:29:12.597Z,17.58
2023-04-20T19:31:42.380Z,15.18
2023-04-20T19:34:13.645Z,17.02
2023-04-20T19:36:43.731Z,15.43
2023-04-20T19:39:13.333Z,17.95
2023-04-20T19:41:42.959Z,18.60
2023-04-20T19:44:15.143Z,17.42
2023-04-20T19:46:44.839Z,18.50
2023-04-20T19:49:14.408Z,20.40
2023-04-20T19:51:44.087Z,19.13
2023-04-20T19:54:16.850Z,15.75
2023-04-20T19:56:46.524Z,21.63
2023-04-20T19:59:18.954Z,17.00
2023-04-20T20:01:50.677Z,15.30
2023-04-20T20:04:20.626Z,17.00
2023-04-20T20:06:50.969Z,18.52
2023-04-20T20:09:23.131Z,17.50
2023-04-20T20:11:53.977Z,18.88
2023-04-20T20:14:26.154Z,17.95
2023-04-20T20:16:56.806Z,21.17
2023-04-20T20:19:27.417Z,21.00
2023-04-20T20:21:56.986Z,14.77
2023-04-20T20:24:26.532Z,18.50
2023-04-20T20:26:56.150Z,24.38
2023-04-20T20:29:28.264Z,19.15
2023-04-20T20:31:57.868Z,16.65
2023-04-20T20:34:27.828Z,16.58
2023-04-20T20:36:57.376Z,25.00
2023-04-20T20:39:26.964Z,19.77
2023-04-20T20:41:57.306Z,17.95
2023-04-20T20:44:33.045Z,20.02
2023-04-20T20:47:02.718Z,25.15
2023-04-20T20:49:32.289Z,29.25
2023-04-20T20:52:02.261Z,29.55
2023-04-20T20:54:31.827Z,28.25
2023-04-20T20:57:01.870Z,34.40
2023-04-20T20:59:34.027Z,44.38
2023-04-20T21:02:03.816Z,46.78
2023-04-20T21:04:33.504Z,51.72
2023-04-20T21:07:03.125Z,58.33
2023-04-20T21:09:33.203Z,60.72
2023-04-20T21:12:02.950Z,51.25
2023-04-20T21:14:35.216Z,47.58
2023-04-20T21:17:04.997Z,38.17
2023-04-20T21:19:35.151Z,26.88
2023-04-20T21:22:04.759Z,25.40
2023-04-20T21:24:34.365Z,33.35
2023-04-20T21:27:03.997Z,54.90
2023-04-20T21:29:36.159Z,42.70
2023-04-20T21:32:06.040Z,41.92
2023-04-20T21:34:35.698Z,42.92
2023-04-20T21:37:06.330Z,41.03
2023-04-20T21:39:35.991Z,39.72
2023-04-20T21:42:05.865Z,28.27
2023-04-20T21:44:38.205Z,24.27
2023-04-20T21:47:07.911Z,24.65
2023-04-20T21:49:37.515Z,21.85
2023-04-20T21:52:07.206Z,24.58
2023-04-20T21:54:36.784Z,25.38
2023-04-20T21:57:06.573Z,26.52
2023-04-20T21:59:38.788Z,21.75
2023-04-20T22:02:08.464Z,22.30
2023-04-20T22:04:38.203Z,21.88
2023-04-20T22:07:08.278Z,21.83
2023-04-20T22:09:37.844Z,28.33
2023-04-20T22:12:09.224Z,22.08
2023-04-20T22:14:42.007Z,17.08
2023-04-20T22:17:11.998Z,21.98
2023-04-20T22:19:42.365Z,21.15
2023-04-20T22:22:12.334Z,29.67
2023-04-20T22:24:42.144Z,21.73
2023-04-20T22:27:11.744Z,23.73
2023-04-20T22:29:43.888Z,26.95
2023-04-20T22:32:13.473Z,20.50
2023-04-20T22:34:43.198Z,32.85
2023-04-20T22:37:12.745Z,22.02
2023-04-20T22:39:42.341Z,20.58
2023-04-20T22:42:12.017Z,25.35
2023-04-20T22:44:44.180Z,20.42
2023-04-20T22:47:13.907Z,24.77
2023-04-20T22:49:43.497Z,24.83
2023-04-20T22:52:13.013Z,23.23
2023-04-20T22:54:48.165Z,21.45
2023-04-20T22:57:18.582Z,25.17
2023-04-20T22:59:51.741Z,21.27
2023-04-20T23:02:21.322Z,25.60
2023-04-20T23:04:51.680Z,26.85
2023-04-20T23:07:21.635Z,22.75
2023-04-20T23:09:51.236Z,21.70
2023-04-20T23:12:20.990Z,20.30
2023-04-20T23:14:54.908Z,26.05
2023-04-20T23:17:24.492Z,21.55
2023-04-20T23:19:54.122Z,24.73
2023-04-20T23:22:23.664Z,26.33
2023-04-20T23:24:53.221Z,22.08
2023-04-20T23:27:22.791Z,23.58
2023-04-20T23:29:54.917Z,22.15
2023-04-20T23:32:24.794Z,19.60
2023-04-20T23:34:54.318Z,26.73
2023-04-20T23:37:23.854Z,23.02
2023-04-20T23:39:53.364Z,18.00
2023-04-20T23:42:22.939Z,22.48
2023-04-20T23:44:55.045Z,21.08
2023-04-20T23:47:24.620Z,23.67
2023-04-20T23:49:54.213Z,23.58
2023-04-20T23:52:23.808Z,24.15
2023-04-20T23:54:53.352Z,25.20
2023-04-20T23:57:22.915Z,22.33
2023-04-20T23:59:55.014Z,23.55
